Time;durP1;ratioP1;P1;durP2;ratioP2;P2;SDS_P1;SDS_P2;PMS_P1;PMS_P2;Temp;Humidity;BMP_temperature;BMP_pressure;BME280_temperature;BME280_humidity;BME280_pressure;Samples;Min_cycle;Max_cycle;Signal;HPM_P1;HPM_P2
2021/01/09 00:00:42;;;;;;;2.08;1.00;;;;;;;24.32;37.96;98445.84;4944452;29;20223;-66
2021/01/09 00:03:09;;;;;;;2.63;1.10;;;;;;;24.36;37.10;98452.53;4953182;28;20268;-65
2021/01/09 00:05:35;;;;;;;1.30;0.80;;;;;;;24.34;37.94;98454.53;4954270;28;20285;-65
2021/01/09 00:08:01;;;;;;;0.80;0.80;;;;;;;24.38;37.31;98455.00;4952102;28;20245;-64
2021/01/09 00:10:27;;;;;;;1.35;0.75;;;;;;;24.31;37.63;98457.53;4953774;28;20198;-61
2021/01/09 00:12:53;;;;;;;1.05;0.73;;;;;;;24.36;37.65;98449.00;4951996;28;20282;-65
2021/01/09 00:15:19;;;;;;;2.63;0.95;;;;;;;24.41;38.44;98454.66;4954036;28;20205;-65
2021/01/09 00:17:45;;;;;;;0.93;0.73;;;;;;;24.31;37.41;98459.38;4953970;28;20206;-65
2021/01/09 00:20:15;;;;;;;1.02;0.82;;;;;;;24.24;37.47;98453.06;4953112;28;20761;-65
2021/01/09 00:22:41;;;;;;;2.88;1.48;;;;;;;24.23;37.38;98460.25;4955388;29;20195;-64
2021/01/09 00:25:10;;;;;;;1.10;0.82;;;;;;;24.24;37.29;98453.06;4953792;28;20218;-65
2021/01/09 00:27:36;;;;;;;2.05;1.00;;;;;;;24.21;37.96;98454.22;4953598;28;20669;-65
2021/01/09 00:30:03;;;;;;;0.80;0.80;;;;;;;24.27;37.99;98456.22;4952864;28;20222;-65
2021/01/09 00:32:29;;;;;;;1.67;0.90;;;;;;;24.30;37.30;98445.19;4952441;28;20615;-65
2021/01/09 00:34:55;;;;;;;1.15;0.80;;;;;;;24.33;38.10;98450.19;4953188;28;20195;-65
2021/01/09 00:37:25;;;;;;;1.23;0.80;;;;;;;24.45;37.21;98447.13;4953200;28;20219;-65
2021/01/09 00:39:51;;;;;;;4.15;1.00;;;;;;;24.54;37.38;98446.09;4952891;28;20214;-64
2021/01/09 00:42:17;;;;;;;4.53;1.00;;;;;;;24.76;36.95;98447.19;4952300;28;20468;-61
2021/01/09 00:44:43;;;;;;;9.32;1.20;;;;;;;24.79;37.59;98456.72;4953730;28;20225;-65
2021/01/09 00:47:09;;;;;;;2.70;1.05;;;;;;;24.64;37.41;98449.44;4954313;28;20650;-64
2021/01/09 00:49:35;;;;;;;2.17;1.08;;;;;;;24.63;37.71;98458.47;4953712;28;20227;-65
2021/01/09 00:52:01;;;;;;;4.05;1.08;;;;;;;24.67;38.24;98453.59;4953545;28;20195;-65
2021/01/09 00:54:29;;;;;;;1.80;1.00;;;;;;;24.69;38.42;98463.09;4953593;28;20646;-64
2021/01/09 00:56:56;;;;;;;8.07;1.27;;;;;;;24.71;38.35;98462.94;4953858;28;20210;-66
2021/01/09 00:59:24;;;;;;;2.65;1.00;;;;;;;24.70;38.19;98470.13;4953791;28;20302;-65
2021/01/09 01:01:51;;;;;;;3.78;0.90;;;;;;;24.68;37.75;98463.28;4953813;28;20349;-65
2021/01/09 01:04:17;;;;;;;2.10;0.90;;;;;;;24.69;37.39;98463.09;4948738;29;20199;-65
2021/01/09 01:06:43;;;;;;;3.63;1.10;;;;;;;24.66;37.32;98473.31;4952862;28;20313;-65
2021/01/09 01:09:10;;;;;;;2.15;1.00;;;;;;;24.70;37.49;98470.13;4953489;28;20233;-62
2021/01/09 01:11:37;;;;;;;9.45;1.30;;;;;;;24.69;38.52;98475.66;4954253;28;20207;-62
2021/01/09 01:14:04;;;;;;;2.90;1.10;;;;;;;24.70;38.11;98470.13;4953816;28;20198;-65
2021/01/09 01:16:30;;;;;;;4.03;0.95;;;;;;;24.68;37.74;98472.16;4952255;28;20205;-64
2021/01/09 01:18:56;;;;;;;4.75;1.10;;;;;;;24.72;38.20;98467.28;4952124;29;20724;-65
2021/01/09 01:21:23;;;;;;;4.65;1.02;;;;;;;24.69;37.85;98473.78;4953292;28;20293;-64
2021/01/09 01:23:49;;;;;;;5.10;1.20;;;;;;;24.69;38.46;98479.16;4952466;28;20202;-65
2021/01/09 01:26:15;;;;;;;2.42;0.70;;;;;;;24.70;37.69;98475.47;4952407;28;20225;-65
2021/01/09 01:28:42;;;;;;;4.03;1.08;;;;;;;24.80;37.54;98479.75;4953618;28;20246;-64
2021/01/09 01:31:09;;;;;;;5.60;1.30;;;;;;;24.77;37.73;98480.13;4952660;28;20206;-64
2021/01/09 01:33:38;;;;;;;5.13;1.00;;;;;;;24.73;37.42;98474.28;4952930;28;20199;-63
2021/01/09 01:36:04;;;;;;;3.03;1.08;;;;;;;24.77;37.47;98480.13;4951922;28;20195;-65
2021/01/09 01:38:32;;;;;;;5.18;1.27;;;;;;;24.73;37.10;98468.94;4953201;28;20222;-66
2021/01/09 01:41:01;;;;;;;2.88;0.90;;;;;;;24.72;37.38;98481.47;4953365;28;20244;-65
2021/01/09 01:43:27;;;;;;;3.33;0.90;;;;;;;24.74;38.38;98481.31;4951285;28;20207;-65
2021/01/09 01:45:54;;;;;;;2.67;0.95;;;;;;;24.68;38.25;98480.16;4952266;28;20293;-64
2021/01/09 01:48:20;;;;;;;1.02;0.73;;;;;;;24.74;37.90;98482.13;4950043;28;20217;-65
2021/01/09 01:50:47;;;;;;;1.65;0.82;;;;;;;24.73;37.56;98483.16;4951698;28;20202;-65
2021/01/09 01:53:13;;;;;;;4.78;1.20;;;;;;;24.70;38.20;98483.50;4952542;28;20203;-65
2021/01/09 01:55:39;;;;;;;3.67;1.02;;;;;;;24.67;37.31;98483.84;4952224;29;20207;-65
2021/01/09 01:58:05;;;;;;;3.33;0.90;;;;;;;24.69;37.52;98484.50;4952136;28;20203;-65
2021/01/09 02:00:31;;;;;;;2.78;1.17;;;;;;;24.68;38.13;98487.34;4952201;28;20226;-63
2021/01/09 02:02:58;;;;;;;1.60;0.90;;;;;;;24.73;37.99;98488.50;4950788;28;20245;-65
2021/01/09 02:05:27;;;;;;;3.28;0.80;;;;;;;24.72;38.29;98484.16;4952024;28;20198;-65
2021/01/09 02:07:55;;;;;;;1.83;0.85;;;;;;;24.72;37.29;98486.81;4952661;28;20210;-64
2021/01/09 02:10:24;;;;;;;3.05;0.88;;;;;;;24.75;37.59;98491.81;4952466;28;20288;-64
2021/01/09 02:12:58;;;;;;;6.95;1.10;;;;;;;24.78;37.73;98490.66;4952419;28;20280;-65
2021/01/09 02:15:25;;;;;;;2.63;0.65;;;;;;;24.68;38.16;98487.34;4952201;29;20215;-68
2021/01/09 02:17:52;;;;;;;3.30;0.93;;;;;;;24.73;37.77;98488.50;4953122;28;20202;-65
2021/01/09 02:20:20;;;;;;;1.00;0.75;;;;;;;24.70;38.01;98496.03;4951711;28;20508;-65
2021/01/09 02:22:47;;;;;;;2.08;0.70;;;;;;;24.72;38.11;98492.16;4951925;28;20257;-65
2021/01/09 02:25:13;;;;;;;3.72;0.75;;;;;;;24.71;38.28;98495.88;4951151;28;20293;-65
2021/01/09 02:27:40;;;;;;;2.83;0.85;;;;;;;24.73;37.41;98499.19;4951223;28;20539;-66
2021/01/09 02:30:08;;;;;;;1.92;0.80;;;;;;;24.73;37.98;98495.66;4952164;28;20253;-66
2021/01/09 02:32:44;;;;;;;2.53;0.80;;;;;;;24.68;37.18;98493.53;4951942;28;20317;-65
2021/01/09 02:35:12;;;;;;;2.63;0.88;;;;;;;24.63;38.30;98490.56;4953657;28;20209;-66
2021/01/09 02:37:38;;;;;;;1.88;0.80;;;;;;;24.67;38.18;98491.84;4952933;28;20222;-66
2021/01/09 02:40:07;;;;;;;3.63;0.98;;;;;;;24.65;38.29;98493.88;4951438;28;20227;-66
2021/01/09 02:42:33;;;;;;;3.10;0.90;;;;;;;24.67;37.28;98501.72;4951009;28;20589;-65
2021/01/09 02:45:00;;;;;;;3.95;0.82;;;;;;;24.72;38.29;98486.00;4949237;29;20290;-66
2021/01/09 02:47:26;;;;;;;1.58;0.90;;;;;;;24.70;38.20;98488.84;4951386;28;20289;-65
2021/01/09 02:49:52;;;;;;;1.48;0.85;;;;;;;24.72;38.18;98486.81;4951236;28;20278;-64
2021/01/09 02:52:18;;;;;;;3.53;0.95;;;;;;;24.63;38.18;98479.84;4951926;28;20195;-65
2021/01/09 02:54:44;;;;;;;2.20;0.77;;;;;;;24.69;37.56;98481.81;4951753;28;20209;-65
2021/01/09 02:57:11;;;;;;;1.73;0.90;;;;;;;24.75;37.24;98488.31;4951159;28;20552;-62
2021/01/09 02:59:37;;;;;;;1.48;0.82;;;;;;;24.65;38.33;98483.19;4951068;28;20258;-65
2021/01/09 03:02:03;;;;;;;1.13;0.85;;;;;;;24.64;37.98;98492.19;4951833;28;20218;-65
2021/01/09 03:04:29;;;;;;;1.38;0.77;;;;;;;24.66;38.43;98484.84;4950523;28;20666;-65
2021/01/09 03:06:55;;;;;;;2.05;0.70;;;;;;;24.70;38.29;98491.50;4951668;28;20203;-65
2021/01/09 03:09:21;;;;;;;1.20;0.90;;;;;;;24.63;37.82;98495.91;4942989;29;20226;-65
2021/01/09 03:11:47;;;;;;;2.00;0.80;;;;;;;24.66;37.51;98492.03;4950928;28;20647;-65
2021/01/09 03:14:14;;;;;;;3.15;0.80;;;;;;;24.65;37.57;98495.72;4950195;28;20269;-64
2021/01/09 03:16:40;;;;;;;2.50;0.73;;;;;;;24.65;38.05;98499.22;4950267;28;20220;-60
2021/01/09 03:19:06;;;;;;;1.98;0.80;;;;;;;24.66;38.08;98506.22;4950785;28;20226;-65
2021/01/09 03:21:32;;;;;;;3.60;0.90;;;;;;;24.64;37.57;98508.25;4951138;28;20237;-65
2021/01/09 03:23:58;;;;;;;2.97;1.02;;;;;;;24.58;38.01;98514.28;4951334;28;20642;-64
2021/01/09 03:26:24;;;;;;;3.45;0.82;;;;;;;24.59;38.36;98509.78;4951040;28;20258;-63
2021/01/09 03:28:50;;;;;;;1.50;0.75;;;;;;;24.67;38.06;98501.72;4950540;28;20225;-65
2021/01/09 03:31:17;;;;;;;3.70;0.82;;;;;;;24.65;38.08;98515.25;4951609;28;20277;-65
2021/01/09 03:33:43;;;;;;;2.35;0.70;;;;;;;24.64;38.11;98508.25;4950419;28;20661;-63
2021/01/09 03:36:10;;;;;;;1.52;0.80;;;;;;;24.67;37.78;98517.75;4950931;28;20277;-65
2021/01/09 03:38:36;;;;;;;2.35;0.73;;;;;;;24.61;38.56;98521.94;4950056;29;20219;-65
2021/01/09 03:41:03;;;;;;;1.25;0.70;;;;;;;24.64;38.46;98518.09;4951443;28;20677;-65
2021/01/09 03:43:29;;;;;;;1.23;0.95;;;;;;;24.65;38.40;98515.25;4950077;28;20238;-65
2021/01/09 03:45:55;;;;;;;2.88;0.60;;;;;;;24.65;38.41;98511.75;4950920;28;20208;-65
2021/01/09 03:48:22;;;;;;;2.35;0.88;;;;;;;24.65;37.36;98515.25;4950964;28;20237;-65
2021/01/09 03:50:48;;;;;;;1.75;0.70;;;;;;;24.63;38.49;98514.59;4951538;28;20642;-66
2021/01/09 03:53:14;;;;;;;2.45;1.00;;;;;;;24.68;38.42;98506.03;4951289;28;20199;-64
2021/01/09 03:55:40;;;;;;;1.65;0.98;;;;;;;24.72;37.48;98510.88;4951365;28;20211;-65
2021/01/09 03:58:06;;;;;;;1.38;1.00;;;;;;;24.57;38.02;98512.63;4951685;28;20213;-65
2021/01/09 04:00:32;;;;;;;2.05;1.05;;;;;;;24.58;38.05;98516.97;4951228;28;20207;-64
2021/01/09 04:02:58;;;;;;;1.05;0.80;;;;;;;24.64;37.29;98520.78;4950845;28;20335;-65
2021/01/09 04:05:25;;;;;;;2.05;0.80;;;;;;;24.66;38.47;98522.25;4950940;28;20214;-63
2021/01/09 04:07:51;;;;;;;1.90;1.02;;;;;;;24.63;37.24;98517.28;4950341;29;20199;-65
2021/01/09 04:10:17;;;;;;;3.25;0.90;;;;;;;24.66;38.22;98516.91;4952015;28;20231;-65
2021/01/09 04:12:43;;;;;;;2.03;0.70;;;;;;;24.69;38.33;98521.09;4953770;28;22098;-64
2021/01/09 04:15:11;;;;;;;1.58;0.93;;;;;;;24.66;38.22;98527.59;4960574;28;20230;-65
2021/01/09 04:17:37;;;;;;;1.67;1.00;;;;;;;24.67;38.22;98518.59;4954910;28;20297;-65
2021/01/09 04:20:04;;;;;;;2.00;0.60;;;;;;;24.64;38.40;98518.94;4953702;28;20341;-63
2021/01/09 04:22:31;;;;;;;1.58;0.90;;;;;;;24.63;38.18;98525.31;4954316;28;20227;-64
2021/01/09 04:24:57;;;;;;;0.70;0.65;;;;;;;24.70;37.95;98522.78;4954516;28;20225;-65
2021/01/09 04:27:23;;;;;;;1.15;0.73;;;;;;;24.62;38.09;98520.94;4953322;28;20649;-64
2021/01/09 04:29:49;;;;;;;1.80;0.80;;;;;;;24.65;38.38;98520.59;4954104;28;20223;-65
2021/01/09 04:32:15;;;;;;;2.67;1.13;;;;;;;24.65;38.41;98520.59;4952500;28;20195;-65
2021/01/09 04:34:42;;;;;;;1.05;0.60;;;;;;;24.63;38.49;98521.78;4953988;28;20203;-65
2021/01/09 04:37:08;;;;;;;1.42;0.82;;;;;;;24.60;38.29;98528.31;4954699;28;20305;-65
2021/01/09 04:39:35;;;;;;;2.42;1.30;;;;;;;24.62;37.24;98520.94;4953881;28;20230;-64
2021/01/09 04:42:01;;;;;;;1.50;0.80;;;;;;;24.55;38.46;98523.47;4953385;28;20302;-65
2021/01/09 04:44:27;;;;;;;2.25;0.70;;;;;;;24.58;38.59;98514.28;4953370;28;20210;-65
2021/01/09 04:46:55;;;;;;;0.90;0.65;;;;;;;24.60;38.52;98514.94;4953685;28;20265;-65
2021/01/09 04:49:23;;;;;;;3.10;1.05;;;;;;;24.64;38.45;98524.28;4952688;28;20246;-64
2021/01/09 04:51:50;;;;;;;1.70;1.02;;;;;;;24.58;38.12;98522.31;4952830;28;20203;-63
2021/01/09 04:54:18;;;;;;;1.48;0.70;;;;;;;24.57;37.92;98528.66;4934592;29;20282;-65
2021/01/09 04:56:46;;;;;;;3.53;0.95;;;;;;;24.61;37.71;98532.63;4949417;29;20195;-65
2021/01/09 04:59:13;;;;;;;1.35;0.75;;;;;;;24.58;37.69;98533.00;4954161;28;20273;-64
2021/01/09 05:01:41;;;;;;;1.85;1.00;;;;;;;24.62;38.48;98526.28;4952812;28;20297;-65
2021/01/09 05:04:07;;;;;;;0.68;0.63;;;;;;;24.61;37.75;98527.28;4953725;28;20666;-65
2021/01/09 05:06:33;;;;;;;2.28;0.60;;;;;;;24.63;37.66;98527.97;4952649;28;20199;-65
2021/01/09 05:08:59;;;;;;;2.22;1.00;;;;;;;24.60;38.16;98527.47;4953016;28;20223;-65
2021/01/09 05:11:25;;;;;;;1.63;0.82;;;;;;;24.58;37.51;98527.66;4951847;28;20674;-65
2021/01/09 05:13:52;;;;;;;1.00;0.80;;;;;;;24.61;37.88;98527.28;4950796;28;20209;-65
2021/01/09 05:16:18;;;;;;;1.15;0.80;;;;;;;24.65;37.54;98533.16;4953075;28;20207;-63
2021/01/09 05:18:44;;;;;;;1.17;0.75;;;;;;;24.61;37.54;98531.81;4952308;28;20223;-62
2021/01/09 05:21:11;;;;;;;1.90;0.88;;;;;;;24.66;38.53;98530.28;4952041;28;20222;-65
2021/01/09 05:23:49;;;;;;;0.95;0.70;;;;;;;24.63;38.05;98532.47;4951562;28;20206;-65
2021/01/09 05:26:17;;;;;;;1.00;0.55;;;;;;;24.61;37.77;98527.28;4953343;28;20257;-61
2021/01/09 05:28:48;;;;;;;2.50;0.82;;;;;;;24.60;37.68;98531.00;4952949;28;20235;-65
2021/01/09 05:31:16;;;;;;;3.63;0.90;;;;;;;24.65;38.44;98530.47;4952939;28;20199;-65
2021/01/09 05:33:42;;;;;;;0.80;0.60;;;;;;;24.58;37.70;98537.50;4953215;28;20203;-65
2021/01/09 05:36:09;;;;;;;1.20;0.60;;;;;;;24.57;38.50;98534.00;4952484;28;20209;-65
2021/01/09 05:38:36;;;;;;;1.10;0.63;;;;;;;24.61;37.73;98546.00;4961435;28;20713;-65
2021/01/09 05:41:04;;;;;;;1.67;0.57;;;;;;;24.63;38.15;98544.00;4953082;28;20559;-64
2021/01/09 05:43:30;;;;;;;0.95;0.90;;;;;;;24.59;38.40;98541.84;4953643;29;20574;-65
2021/01/09 05:45:57;;;;;;;1.70;0.82;;;;;;;24.58;38.16;98545.50;4952490;28;20213;-65
2021/01/09 05:48:25;;;;;;;0.90;0.70;;;;;;;24.60;37.91;98543.50;4952841;29;20230;-64
2021/01/09 05:50:53;;;;;;;1.35;0.85;;;;;;;24.56;38.46;98540.34;4952654;28;20281;-64
2021/01/09 05:53:41;;;;;;;1.65;0.60;;;;;;;24.53;38.56;98549.53;4952940;28;20660;-65
2021/01/09 05:56:08;;;;;;;1.30;0.70;;;;;;;24.54;37.86;98548.50;4944333;29;20214;-65
2021/01/09 05:58:35;;;;;;;1.38;0.70;;;;;;;24.63;38.31;98549.38;4951744;28;20218;-65
2021/01/09 06:01:05;;;;;;;1.80;0.90;;;;;;;24.59;38.39;98547.19;4951915;28;20347;-65
2021/01/09 06:03:39;;;;;;;1.40;0.80;;;;;;;24.59;37.44;98552.53;4953331;29;20247;-65
2021/01/09 06:06:26;;;;;;;0.82;0.77;;;;;;;24.55;38.56;98552.06;4952751;28;20203;-65
2021/01/09 06:08:55;;;;;;;0.90;0.68;;;;;;;24.58;38.08;98550.88;4952281;28;20223;-65
2021/01/09 06:11:29;;;;;;;4.53;1.00;;;;;;;24.60;38.61;98549.69;4962336;28;20779;-65
2021/01/09 06:13:59;;;;;;;1.33;0.80;;;;;;;24.63;38.17;98549.38;4951689;28;20205;-64
2021/01/09 06:16:26;;;;;;;2.10;1.00;;;;;;;24.65;38.08;98552.69;4952527;28;20229;-64
2021/01/09 06:18:54;;;;;;;1.88;0.80;;;;;;;24.58;38.16;98548.19;4952544;28;20218;-63
2021/01/09 06:21:20;;;;;;;0.75;0.65;;;;;;;24.58;38.50;98553.53;4951093;28;20227;-65
2021/01/09 06:23:47;;;;;;;2.85;0.80;;;;;;;24.61;38.55;98559.38;4952672;28;20219;-65
2021/01/09 06:26:14;;;;;;;1.40;0.70;;;;;;;24.58;37.68;98566.91;4952768;28;20238;-65
2021/01/09 06:28:46;;;;;;;1.33;0.65;;;;;;;24.52;37.45;98552.34;4952012;28;20565;-65
2021/01/09 06:31:19;;;;;;;1.48;0.80;;;;;;;24.56;37.31;98567.06;4952084;28;20202;-65
2021/01/09 06:33:48;;;;;;;1.05;0.75;;;;;;;24.63;37.91;98569.88;4952284;28;20642;-62
2021/01/09 06:36:15;;;;;;;1.33;0.70;;;;;;;24.56;37.93;98567.06;4952580;28;20194;-65
2021/01/09 06:38:44;;;;;;;1.65;0.77;;;;;;;24.55;38.25;98568.09;4952471;28;20623;-65
2021/01/09 06:41:13;;;;;;;0.73;0.60;;;;;;;24.48;37.35;98573.25;4953138;28;20529;-65
2021/01/09 06:43:43;;;;;;;1.95;0.80;;;;;;;24.48;38.00;98573.25;4952054;28;20199;-65
2021/01/09 06:46:11;;;;;;;1.13;0.75;;;;;;;24.55;38.08;98573.44;4952019;28;20194;-65
2021/01/09 06:48:37;;;;;;;1.60;0.95;;;;;;;24.55;38.07;98573.44;4951780;28;20241;-65
2021/01/09 06:51:40;;;;;;;1.95;0.82;;;;;;;24.69;38.30;98570.03;4950889;28;20204;-65
2021/01/09 06:54:43;;;;;;;1.25;1.00;;;;;;;24.78;37.81;98570.00;4951504;28;20260;-64
2021/01/09 06:57:20;;;;;;;1.88;0.80;;;;;;;24.86;37.07;98578.00;4947237;28;20215;-65
2021/01/09 06:59:48;;;;;;;1.33;0.80;;;;;;;24.94;37.74;98577.97;4953284;28;20222;-65
2021/01/09 07:02:22;;;;;;;1.13;0.70;;;;;;;24.97;37.35;98577.66;4951203;28;20304;-65
2021/01/09 07:05:04;;;;;;;1.20;0.70;;;;;;;25.03;37.18;98579.63;4952715;28;20209;-68
2021/01/09 07:07:39;;;;;;;1.33;0.93;;;;;;;25.07;36.82;98583.63;4952497;28;20210;-63
2021/01/09 07:10:08;;;;;;;1.90;0.70;;;;;;;25.10;37.43;98577.09;4952615;28;20236;-65
2021/01/09 07:12:34;;;;;;;1.15;0.60;;;;;;;25.09;36.81;98583.44;4952137;28;20209;-65
2021/01/09 07:15:06;;;;;;;1.00;0.80;;;;;;;25.09;37.13;98586.94;4951397;28;20265;-65
2021/01/09 07:17:38;;;;;;;1.52;1.00;;;;;;;25.14;37.63;98580.25;4951165;28;20282;-65
2021/01/09 07:20:06;;;;;;;2.20;0.80;;;;;;;25.14;37.25;98591.78;4950749;28;20300;-65
2021/01/09 07:22:34;;;;;;;0.82;0.80;;;;;;;25.15;37.35;98588.09;4952031;28;20230;-63
2021/01/09 07:25:05;;;;;;;4.43;1.02;;;;;;;25.11;36.60;98595.66;4950320;28;20212;-65
2021/01/09 07:27:35;;;;;;;1.02;0.80;;;;;;;25.16;36.73;98588.94;4952084;28;20290;-65
2021/01/09 07:30:08;;;;;;;1.02;0.93;;;;;;;25.04;37.63;98594.66;4951548;28;20690;-64
2021/01/09 07:32:41;;;;;;;1.02;0.88;;;;;;;25.08;37.54;98596.00;4951614;28;20195;-65
2021/01/09 07:35:08;;;;;;;1.95;0.98;;;;;;;25.10;37.23;98593.97;4952412;28;20195;-65
2021/01/09 07:37:38;;;;;;;1.67;0.80;;;;;;;25.19;37.31;98588.59;4950665;28;20205;-68
2021/01/09 07:40:13;;;;;;;3.35;1.02;;;;;;;25.17;37.50;98593.28;4951999;28;20222;-65
2021/01/09 07:42:40;;;;;;;0.95;0.70;;;;;;;25.16;37.46;98596.94;4952142;28;20222;-63
2021/01/09 07:45:07;;;;;;;1.02;0.75;;;;;;;25.12;37.17;98593.78;4951280;28;20203;-65
2021/01/09 07:47:38;;;;;;;1.27;1.00;;;;;;;25.07;37.68;98599.66;4955285;28;20211;-65
2021/01/09 07:50:05;;;;;;;1.95;0.85;;;;;;;25.18;37.06;98600.28;4954955;28;20237;-70
2021/01/09 07:52:34;;;;;;;5.53;1.35;;;;;;;25.23;37.57;98608.63;4955414;28;20199;-71
2021/01/09 07:55:00;;;;;;;4.80;1.30;;;;;;;25.30;36.72;98609.63;4961262;28;20487;-70
2021/01/09 07:57:27;;;;;;;2.72;1.27;;;;;;;25.39;37.08;98608.56;4953925;28;20202;-72
2021/01/09 08:00:16;;;;;;;2.72;1.20;;;;;;;25.50;37.22;98612.72;4956240;29;20338;-69
2021/01/09 08:02:46;;;;;;;2.65;1.20;;;;;;;25.53;37.41;98615.03;4955457;28;20239;-69
2021/01/09 08:05:19;;;;;;;2.85;1.30;;;;;;;25.43;37.65;98615.25;4951036;29;20856;-69
2021/01/09 08:07:47;;;;;;;3.83;1.30;;;;;;;25.34;36.40;98616.28;4956092;28;20211;-70
2021/01/09 08:10:18;;;;;;;3.28;1.10;;;;;;;25.48;36.70;98630.81;4954538;28;20218;-72
2021/01/09 08:12:46;;;;;;;7.13;1.48;;;;;;;25.40;37.76;98620.97;4954385;28;20582;-70
2021/01/09 08:15:13;;;;;;;6.43;1.75;;;;;;;25.27;36.64;98631.41;4953937;28;20278;-70
2021/01/09 08:17:39;;;;;;;1.90;1.27;;;;;;;25.20;37.36;98635.75;4955013;28;20211;-70
2021/01/09 08:20:10;;;;;;;5.20;1.20;;;;;;;25.17;37.57;98639.59;4953031;28;20226;-70
2021/01/09 08:22:37;;;;;;;2.20;1.20;;;;;;;25.42;37.47;98632.31;4954112;28;20230;-70
2021/01/09 08:25:11;;;;;;;1.83;1.15;;;;;;;25.38;36.15;98644.41;4954050;28;20215;-70
2021/01/09 08:27:45;;;;;;;3.08;1.40;;;;;;;25.39;37.21;98642.53;4953216;28;20238;-70
2021/01/09 08:30:15;;;;;;;6.10;1.52;;;;;;;25.45;36.41;98645.34;4954130;28;20321;-70
2021/01/09 08:32:41;;;;;;;2.20;1.00;;;;;;;25.42;36.61;98651.06;4953903;28;20199;-70
2021/01/09 08:35:09;;;;;;;2.40;1.30;;;;;;;25.30;37.29;98637.22;4953533;28;20203;-69
2021/01/09 08:37:35;;;;;;;2.40;1.35;;;;;;;25.26;36.28;98640.38;4954485;28;20695;-70
2021/01/09 08:40:16;;;;;;;4.30;1.50;;;;;;;25.16;36.23;98645.94;4954059;28;20233;-70
2021/01/09 08:42:55;;;;;;;4.28;1.35;;;;;;;25.10;37.41;98652.00;4954885;28;20317;-70
2021/01/09 08:45:39;;;;;;;3.35;1.20;;;;;;;25.29;37.20;98650.78;4953775;28;20313;-70
2021/01/09 08:48:12;;;;;;;5.22;1.30;;;;;;;25.42;37.62;98656.41;4952737;28;20268;-70
2021/01/09 08:51:02;;;;;;;6.22;1.20;;;;;;;25.47;38.00;98659.38;4954479;28;20214;-69
2021/01/09 08:53:35;;;;;;;3.58;1.33;;;;;;;25.43;37.79;98658.09;4944642;28;20211;-70
2021/01/09 08:56:03;;;;;;;13.52;2.47;;;;;;;25.51;37.71;98653.69;4955258;28;20305;-70
2021/01/09 08:58:32;;;;;;;17.05;7.55;;;;;;;25.18;31.64;98664.50;4954723;28;20681;-71
2021/01/09 09:01:02;;;;;;;21.13;12.35;;;;;;;24.50;29.43;98666.63;4953883;28;20606;-72
2021/01/09 09:03:31;;;;;;;22.02;12.35;;;;;;;24.27;29.50;98672.63;4953397;29;20218;-72
2021/01/09 09:05:58;;;;;;;19.45;11.75;;;;;;;24.19;29.41;98670.78;4955099;29;20301;-72
2021/01/09 09:08:28;;;;;;;22.65;8.15;;;;;;;24.22;32.42;98674.97;4955176;29;20238;-71
2021/01/09 09:10:55;;;;;;;21.73;6.43;;;;;;;24.08;34.21;98675.59;4954743;28;20206;-69
2021/01/09 09:13:23;;;;;;;9.95;5.32;;;;;;;23.97;35.56;98677.59;4953397;28;20222;-70
2021/01/09 09:15:51;;;;;;;18.25;4.40;;;;;;;24.14;36.41;98674.94;4956610;28;20361;-70
2021/01/09 09:18:19;;;;;;;19.15;4.22;;;;;;;24.24;37.17;98678.28;4957631;28;20202;-69
2021/01/09 09:20:47;;;;;;;16.17;3.58;;;;;;;24.36;37.82;98674.31;4953917;28;20210;-70
2021/01/09 09:23:21;;;;;;;16.00;3.60;;;;;;;24.40;36.89;98682.81;4955886;28;20217;-69
2021/01/09 09:26:03;;;;;;;14.00;3.50;;;;;;;24.44;37.71;98686.00;4958068;28;20325;-71
2021/01/09 09:28:29;;;;;;;16.80;3.67;;;;;;;24.50;37.30;98685.34;4953043;28;20734;-71
2021/01/09 09:30:56;;;;;;;15.15;3.22;;;;;;;24.52;37.51;98683.31;4951711;28;20207;-70
2021/01/09 09:33:24;;;;;;;11.55;3.10;;;;;;;24.66;37.57;98682.66;4954399;28;20203;-71
2021/01/09 09:35:51;;;;;;;10.90;2.67;;;;;;;24.67;38.17;98687.00;4973081;28;20539;-71
2021/01/09 09:38:26;;;;;;;8.48;3.10;;;;;;;24.82;39.10;98697.03;4973073;28;20210;-72
2021/01/09 09:41:03;;;;;;;14.18;3.40;;;;;;;24.86;38.46;98693.81;4971702;28;20408;-71
2021/01/09 09:43:29;;;;;;;13.95;3.38;;;;;;;24.91;38.09;98706.69;4972626;28;20256;-73
2021/01/09 09:45:57;;;;;;;11.93;2.72;;;;;;;24.98;37.75;98704.19;4969909;28;20391;-73
2021/01/09 09:48:34;;;;;;;16.95;3.97;;;;;;;25.00;36.79;98715.56;4961892;28;20311;-73
2021/01/09 09:51:05;;;;;;;10.68;3.15;;;;;;;25.06;36.98;98710.38;4952949;28;20202;-70
2021/01/09 09:53:35;;;;;;;22.95;3.88;;;;;;;24.93;36.84;98710.03;4952634;28;20262;-71
2021/01/09 09:56:20;;;;;;;6.80;3.13;;;;;;;24.94;37.10;98707.19;4953917;28;20653;-71
2021/01/09 09:58:47;;;;;;;12.27;3.20;;;;;;;25.00;36.91;98712.88;4952333;28;20226;-70
2021/01/09 10:01:18;;;;;;;8.55;2.88;;;;;;;25.15;37.03;98715.66;4952284;28;20226;-71
2021/01/09 10:03:45;;;;;;;7.05;2.55;;;;;;;25.10;36.31;98711.69;4951046;28;20655;-71
2021/01/09 10:06:11;;;;;;;10.38;3.15;;;;;;;25.01;36.40;98706.50;4952593;28;20573;-71
2021/01/09 10:08:38;;;;;;;8.18;2.92;;;;;;;25.01;36.40;98704.66;4951237;28;20672;-71
2021/01/09 10:11:04;;;;;;;7.28;2.90;;;;;;;25.24;36.21;98706.63;4952401;28;20207;-70
2021/01/09 10:13:32;;;;;;;8.57;3.15;;;;;;;25.02;36.62;98703.66;4952162;28;20610;-71
2021/01/09 10:15:59;;;;;;;10.02;2.80;;;;;;;25.03;36.05;98710.69;4952382;28;20248;-70
2021/01/09 10:18:26;;;;;;;6.47;2.53;;;;;;;25.00;36.85;98705.69;4953287;28;20226;-70
2021/01/09 10:20:53;;;;;;;6.40;2.90;;;;;;;24.97;36.36;98708.69;4952151;28;20587;-70
2021/01/09 10:23:19;;;;;;;7.03;2.70;;;;;;;24.86;36.16;98695.66;4951832;28;20612;-71
2021/01/09 10:25:45;;;;;;;6.03;2.53;;;;;;;24.82;35.60;98695.19;4952012;28;20330;-71
2021/01/09 10:28:12;;;;;;;6.68;2.95;;;;;;;24.65;36.74;98697.03;4951050;28;20302;-71
2021/01/09 10:30:38;;;;;;;14.23;3.30;;;;;;;24.46;36.78;98692.81;4953102;28;20207;-68
2021/01/09 10:33:05;;;;;;;11.68;2.95;;;;;;;24.44;37.14;98704.69;4951761;28;20298;-73
2021/01/09 10:35:32;;;;;;;7.65;2.70;;;;;;;24.39;36.57;98703.34;4953351;28;20242;-71
2021/01/09 10:37:59;;;;;;;6.50;2.47;;;;;;;24.33;37.39;98704.03;4953378;28;20443;-70
2021/01/09 10:40:25;;;;;;;9.70;2.08;;;;;;;24.25;38.37;98705.84;4952096;28;20332;-69
2021/01/09 10:42:52;;;;;;;6.70;2.63;;;;;;;24.28;38.09;98711.72;4952035;28;20317;-71
2021/01/09 10:45:18;;;;;;;7.68;2.00;;;;;;;24.26;37.95;98705.69;4952506;28;20288;-70
2021/01/09 10:47:44;;;;;;;4.85;2.45;;;;;;;24.33;38.14;98708.50;4952286;28;20225;-70
2021/01/09 10:50:11;;;;;;;7.70;1.95;;;;;;;24.43;37.90;98708.34;4951893;28;20229;-70
2021/01/09 10:52:37;;;;;;;4.80;1.83;;;;;;;24.50;37.63;98704.88;4953067;28;20624;-68
2021/01/09 10:55:06;;;;;;;7.40;1.90;;;;;;;24.66;37.93;98706.72;4952166;28;20285;-70
2021/01/09 10:57:33;;;;;;;4.78;1.92;;;;;;;24.78;37.74;98707.22;4953477;28;20206;-70
2021/01/09 10:59:59;;;;;;;6.57;2.05;;;;;;;24.92;37.22;98705.69;4952806;28;20237;-71
2021/01/09 11:02:25;;;;;;;5.43;1.95;;;;;;;25.08;38.07;98694.97;4953032;28;20233;-71
2021/01/09 11:04:51;;;;;;;5.03;2.28;;;;;;;25.10;36.90;98702.81;4952477;28;20202;-71
2021/01/09 11:07:17;;;;;;;4.57;2.03;;;;;;;25.22;37.35;98698.78;4951748;28;20606;-71
2021/01/09 11:09:44;;;;;;;5.70;1.92;;;;;;;25.26;37.22;98699.25;4952844;28;20313;-70
2021/01/09 11:12:11;;;;;;;4.07;2.00;;;;;;;25.31;37.56;98694.25;4953076;28;20607;-70
2021/01/09 11:14:37;;;;;;;3.67;1.77;;;;;;;25.35;38.02;98694.72;4952295;28;20258;-71
2021/01/09 11:17:03;;;;;;;4.18;2.03;;;;;;;25.41;36.90;98707.44;4952512;28;20251;-70
2021/01/09 11:19:29;;;;;;;4.70;1.90;;;;;;;25.40;37.98;98698.56;4953121;28;20334;-70
2021/01/09 11:22:01;;;;;;;7.47;1.95;;;;;;;25.44;36.70;98694.53;4954886;28;20281;-70
2021/01/09 11:24:28;;;;;;;7.40;2.05;;;;;;;25.45;37.52;98690.88;4957519;28;20207;-70
2021/01/09 11:26:58;;;;;;;4.45;1.88;;;;;;;25.51;37.75;98694.66;4957296;28;20213;-69
2021/01/09 11:29:25;;;;;;;2.95;1.73;;;;;;;25.53;37.55;98689.16;4955547;28;20298;-69
2021/01/09 11:31:56;;;;;;;4.65;1.70;;;;;;;25.56;36.59;98694.97;4955502;28;20239;-71
2021/01/09 11:34:23;;;;;;;6.07;2.25;;;;;;;25.55;36.46;98700.53;4956297;28;20281;-71
2021/01/09 11:36:49;;;;;;;3.42;1.70;;;;;;;25.50;36.52;98690.34;4954426;28;20217;-69